^^
Meteo Knjazevac Station Historical Data
Daily Summary for May 18, 2022 Units:  English    Metric   Both
Daily Weekly Monthly Yearly Custom
  High: Low: Average:
Temperature: 66.7 °F 39.4 °F 51.6 °F
Dew Point: 56.9 °F 39.1 °F 49.7 °F
Humidity: 99% 62.6% 94%
Wind Speed: 17.8mph 0.8mph 4.1mph
Wind Gust: 20mph - -
Wind- - SSE
Pressure: 29.72 in 29.57 in -
Precipitation: 0.54 in    
Historical Graphs
 
 
Tabular Data for May 18, 2022
Time Temperature Dew Point Pressure Wind Wind Speed Wind Gust Humidity Rainfall Rate (Hourly) solar Conditions
00:04 43.9 °F 43.6 °F 29.72 in NW 2.6 mph 4 mph 99% 0.00 in 0 W/m2
00:09 43.8 °F 43.5 °F 29.72 in NW 1.6 mph 3 mph 99% 0.00 in 0 W/m2
00:14 43.7 °F 43.4 °F 29.72 in NNW 2.8 mph 3 mph 99% 0.00 in 0 W/m2
00:19 43.5 °F 43.3 °F 29.72 in North 1.7 mph 3 mph 99% 0.00 in 0 W/m2
00:24 43.4 °F 43.2 °F 29.72 in North 2.1 mph 2 mph 99% 0.00 in 0 W/m2
00:29 43.3 °F 43 °F 29.72 in NNW 1.5 mph 2 mph 99% 0.00 in 0 W/m2
00:34 43.1 °F 42.8 °F 29.72 in WNW 1 mph 2 mph 99% 0.00 in 0 W/m2
00:39 43 °F 42.7 °F 29.72 in NNW 1.4 mph 2 mph 99% 0.00 in 0 W/m2
00:44 43.2 °F 42.9 °F 29.72 in NNW 1.5 mph 2 mph 99% 0.00 in 0 W/m2
00:49 43.3 °F 43.1 °F 29.71 in NNW 1.6 mph 2 mph 99% 0.00 in 0 W/m2
00:54 43.1 °F 42.8 °F 29.71 in NW 1.9 mph 2 mph 99% 0.00 in 0 W/m2
00:59 42.8 °F 42.5 °F 29.72 in WNW 1.9 mph 2 mph 99% 0.00 in 0 W/m2
01:04 42.6 °F 42.3 °F 29.72 in NW 2.2 mph 2 mph 99% 0.00 in 0 W/m2
01:09 42.4 °F 42.1 °F 29.72 in NNW 1.9 mph 2 mph 99% 0.00 in 0 W/m2
01:14 42.3 °F 42 °F 29.72 in NNW 1.9 mph 2 mph 99% 0.00 in 0 W/m2
01:19 42.1 °F 41.8 °F 29.72 in NNW 1.7 mph 2 mph 99% 0.00 in 0 W/m2
01:24 42.1 °F 41.8 °F 29.71 in NNW 3.1 mph 2.7 mph 99% 0.00 in 0 W/m2
01:29 41.9 °F 41.6 °F 29.72 in NNW 2.2 mph 4 mph 99% 0.00 in 0 W/m2
01:34 41.8 °F 41.6 °F 29.71 in NNW 2.6 mph 3 mph 99% 0.00 in 0 W/m2
01:39 41.7 °F 41.5 °F 29.71 in NNW 2.3 mph 3 mph 99% 0.00 in 0 W/m2
01:44 41.5 °F 41.3 °F 29.71 in NW 3.3 mph 4 mph 99% 0.00 in 0 W/m2
01:49 41.4 °F 41.1 °F 29.71 in NNW 2.1 mph 4 mph 99% 0.00 in 0 W/m2
01:54 41.4 °F 41.1 °F 29.71 in North 3 mph 3 mph 99% 0.00 in 0 W/m2
01:59 41.4 °F 41.1 °F 29.71 in North 2.3 mph 3 mph 99% 0.00 in 0 W/m2
02:04 41.2 °F 40.9 °F 29.71 in North 2 mph 2 mph 99% 0.00 in 0 W/m2
02:09 41.1 °F 40.8 °F 29.71 in NNW 3.9 mph 2.7 mph 99% 0.00 in 0 W/m2
02:14 40.8 °F 40.6 °F 29.71 in NW 2.8 mph 5 mph 99% 0.00 in 0 W/m2
02:19 40.7 °F 40.5 °F 29.71 in NW 2.5 mph 3 mph 99% 0.00 in 0 W/m2
02:24 40.5 °F 40.2 °F 29.71 in NW 2.6 mph 3 mph 99% 0.00 in 0 W/m2
02:29 40.3 °F 40 °F 29.71 in NNW 2 mph 3 mph 99% 0.00 in 0 W/m2
02:34 40.1 °F 39.8 °F 29.70 in NW 3 mph 2 mph 99% 0.00 in 0 W/m2
02:39 40 °F 39.7 °F 29.70 in NW 3.1 mph 4 mph 99% 0.00 in 0 W/m2
02:44 39.9 °F 39.7 °F 29.70 in NNW 2.2 mph 4 mph 99% 0.00 in 0 W/m2
02:49 39.7 °F 39.5 °F 29.70 in North 2.2 mph 3 mph 99% 0.00 in 0 W/m2
02:54 39.7 °F 39.5 °F 29.70 in NNW 3 mph 3 mph 99% 0.00 in 0 W/m2
02:59 39.6 °F 39.3 °F 29.70 in NW 2.4 mph 4 mph 99% 0.00 in 0 W/m2
03:04 39.6 °F 39.3 °F 29.70 in NW 2.3 mph 3 mph 99% 0.00 in 0 W/m2
03:09 39.6 °F 39.3 °F 29.70 in NNW 2.5 mph 3 mph 99% 0.00 in 0 W/m2
03:14 39.6 °F 39.3 °F 29.70 in NNW 3.5 mph 3.1 mph 99% 0.00 in 0 W/m2
03:19 39.6 °F 39.3 °F 29.70 in NNW 3 mph 4 mph 99% 0.00 in 0 W/m2
03:24 39.6 °F 39.3 °F 29.70 in NNW 2.7 mph 3 mph 99% 0.00 in 0 W/m2
03:29 39.6 °F 39.3 °F 29.70 in NNW 3.8 mph 5 mph 99% 0.00 in 0 W/m2
03:34 39.6 °F 39.3 °F 29.70 in NNW 2.9 mph 5 mph 99% 0.00 in 0 W/m2
03:39 39.4 °F 39.1 °F 29.70 in NW 2.2 mph 3 mph 99% 0.00 in 0 W/m2
03:44 39.4 °F 39.1 °F 29.70 in NW 2.8 mph 4 mph 99% 0.00 in 0 W/m2
03:49 39.4 °F 39.1 °F 29.70 in NNW 2.2 mph 4 mph 99% 0.00 in 0 W/m2
03:54 39.4 °F 39.1 °F 29.70 in NNW 3.4 mph 4 mph 99% 0.00 in 0 W/m2
03:59 39.6 °F 39.3 °F 29.70 in NNW 3.3 mph 4 mph 99% 0.00 in 0 W/m2
04:04 39.6 °F 39.3 °F 29.70 in North 3.1 mph 4 mph 99% 0.00 in 0 W/m2
04:09 39.9 °F 39.6 °F 29.70 in NNE 2.7 mph 4 mph 99% 0.00 in 0 W/m2
04:14 40.2 °F 39.9 °F 29.70 in NNE 2.9 mph 3 mph 99% 0.00 in 0 W/m2
04:19 40.4 °F 40.1 °F 29.70 in NNE 3.6 mph 4 mph 99% 0.00 in 0 W/m2
04:24 40.8 °F 40.6 °F 29.70 in NNE 2.7 mph 5 mph 99% 0.00 in 0 W/m2
04:29 41.1 °F 40.8 °F 29.70 in NNE 1.9 mph 3 mph 99% 0.00 in 0 W/m2
04:34 41.2 °F 40.9 °F 29.70 in NNE 2.7 mph 3 mph 99% 0.00 in 0 W/m2
04:39 41.3 °F 41 °F 29.70 in NNE 2.7 mph 4 mph 99% 0.00 in 0 W/m2
04:44 41 °F 40.7 °F 29.70 in NNE 2.8 mph 4 mph 99% 0.00 in 0 W/m2
04:49 41.1 °F 40.8 °F 29.70 in NNE 2.5 mph 4 mph 99% 0.00 in 0 W/m2
04:54 41.2 °F 40.9 °F 29.70 in NNE 3.4 mph 3.1 mph 99% 0.00 in 0 W/m2
04:59 41.2 °F 40.9 °F 29.70 in NE 3.1 mph 4 mph 99% 0.00 in 0 W/m2
05:04 41.6 °F 41.3 °F 29.70 in NE 3.9 mph 4 mph 99% 0.00 in 0 W/m2
05:09 41.9 °F 41.6 °F 29.70 in NNE 3.1 mph 5 mph 99% 0.00 in 0 W/m2
05:14 41.7 °F 41.5 °F 29.70 in North 2.3 mph 4 mph 99% 0.00 in 0 W/m2
05:19 41.9 °F 41.6 °F 29.70 in NNE 2.3 mph 3 mph 99% 0.00 in 0 W/m2
05:24 42.1 °F 41.8 °F 29.70 in NNE 2.7 mph 3 mph 99% 0.00 in 0 W/m2
05:29 42.2 °F 41.9 °F 29.70 in NNW 2.6 mph 3 mph 99% 0.00 in 0 W/m2
05:34 42.4 °F 42.1 °F 29.70 in North 3.3 mph 5 mph 99% 0.00 in 0 W/m2
05:39 42.3 °F 42.1 °F 29.70 in North 3 mph 4 mph 99% 0.00 in 0 W/m2
05:44 42.5 °F 42.3 °F 29.70 in North 4.1 mph 5 mph 99% 0.00 in 0 W/m2
05:49 42.3 °F 42.1 °F 29.70 in North 3.8 mph 5 mph 99% 0.00 in 0 W/m2
05:54 42.1 °F 41.8 °F 29.70 in North 2.7 mph 5 mph 99% 0.00 in 0 W/m2
05:59 42.2 °F 41.9 °F 29.70 in NNE 3.4 mph 3 mph 99% 0.00 in 0 W/m2
06:04 42 °F 41.7 °F 29.70 in North 3.7 mph 5 mph 99% 0.00 in 0 W/m2
06:09 42.1 °F 41.8 °F 29.70 in North 3.7 mph 5 mph 99% 0.00 in 0 W/m2
06:14 42.4 °F 42.2 °F 29.70 in North 4.5 mph 5 mph 99% 0.00 in 0 W/m2
06:19 42.4 °F 42.1 °F 29.70 in North 2.3 mph 5 mph 99% 0.00 in 1 W/m2
06:24 42.3 °F 42.1 °F 29.69 in North 2.1 mph 3 mph 99% 0.00 in 3 W/m2
06:29 42.4 °F 42.1 °F 29.70 in NNE 2 mph 2 mph 99% 0.00 in 6 W/m2
06:34 42.4 °F 42.2 °F 29.70 in NNE 2.6 mph 2 mph 99% 0.00 in 9 W/m2
06:39 42.6 °F 42.4 °F 29.69 in North 3 mph 3 mph 99% 0.00 in 12 W/m2
06:44 42.9 °F 42.6 °F 29.69 in North 3 mph 4 mph 99% 0.00 in 15 W/m2
06:49 43.2 °F 42.9 °F 29.69 in NNE 3.2 mph 4 mph 99% 0.00 in 20 W/m2
06:54 43.3 °F 43 °F 29.69 in NNE 3.2 mph 3 mph 99% 0.00 in 31 W/m2
06:59 43.4 °F 43.2 °F 29.69 in North 2.6 mph 3 mph 99% 0.00 in 39 W/m2
07:04 43.8 °F 43.5 °F 29.69 in North 2.3 mph 3 mph 99% 0.00 in 46 W/m2
07:09 44.1 °F 43.8 °F 29.69 in North 2.5 mph 5 mph 99% 0.00 in 59 W/m2
07:14 44.3 °F 44.1 °F 29.69 in NNE 2.8 mph 3 mph 99% 0.00 in 69 W/m2
07:19 44.6 °F 44.3 °F 29.69 in NE 2.2 mph 4 mph 99% 0.00 in 82 W/m2
07:24 45 °F 44.7 °F 29.69 in NNE 2.1 mph 2 mph 99% 0.00 in 94 W/m2
07:29 46.1 °F 45.8 °F 29.69 in North 2.1 mph 3 mph 99% 0.00 in 109 W/m2
07:34 47.5 °F 47.3 °F 29.68 in NNW 1.2 mph 3 mph 99% 0.00 in 132 W/m2
07:39 49 °F 48.8 °F 29.69 in NNE 3.8 mph 4.2 mph 99% 0.00 in 169 W/m2
07:44 50.1 °F 49.8 °F 29.69 in ENE 4.7 mph 7 mph 99% 0.00 in 177 W/m2
07:49 51.1 °F 50.4 °F 29.68 in ENE 5 mph 7 mph 97.7% 0.00 in 177 W/m2
07:54 51.5 °F 50.1 °F 29.69 in NE 4.8 mph 6 mph 94.8% 0.00 in 169 W/m2
07:59 51.2 °F 49.2 °F 29.69 in ENE 2 mph 6 mph 93.3% 0.00 in 229 W/m2
08:04 51.1 °F 49.3 °F 29.69 in NE 2 mph 2 mph 93.8% 0.00 in 229 W/m2
08:09 50.9 °F 49.2 °F 29.69 in WNW 2.8 mph 2 mph 94% 0.00 in 135 W/m2
08:14 50.7 °F 49.2 °F 29.68 in WNW 3.8 mph 4 mph 94.7% 0.00 in 148 W/m2
08:19 50.9 °F 49.5 °F 29.69 in NNE 2.8 mph 5 mph 95% 0.00 in 136 W/m2
08:24 51.2 °F 49.8 °F 29.68 in NNE 3.5 mph 5 mph 95% 0.00 in 178 W/m2
08:29 51.4 °F 50 °F 29.68 in NNE 3.1 mph 5 mph 95% 0.00 in 178 W/m2
08:34 51.5 °F 50.1 °F 29.68 in NNE 3.4 mph 4 mph 95% 0.00 in 135 W/m2
08:39 51.7 °F 50.3 °F 29.68 in NNE 3.6 mph 4 mph 95% 0.00 in 135 W/m2
08:44 52.1 °F 50.5 °F 29.68 in NNE 4.2 mph 4 mph 94.2% 0.00 in 273 W/m2
08:49 52.9 °F 51.1 °F 29.68 in NE 2.8 mph 5 mph 93.9% 0.00 in 273 W/m2
08:54 53.8 °F 51.7 °F 29.67 in NE 3.1 mph 3 mph 92.9% 0.00 in 270 W/m2
08:59 54.2 °F 51.8 °F 29.67 in NNE 2.1 mph 3 mph 91.5% 0.00 in 233 W/m2
09:04 54.3 °F 52.3 °F 29.67 in ESE 1.8 mph 2 mph 93% 0.00 in 162 W/m2
09:09 54.3 °F 52.3 °F 29.67 in SW 1.7 mph 2 mph 93% 0.00 in 134 W/m2
09:14 54.1 °F 52.4 °F 29.66 in NNW 2 mph 2 mph 93.5% 0.00 in 115 W/m2
09:19 54.1 °F 52.4 °F 29.66 in WNW 2.1 mph 2 mph 94% 0.00 in 122 W/m2
09:24 54 °F 52.3 °F 29.66 in West 1.5 mph 2 mph 94% 0.00 in 146 W/m2
09:29 54.1 °F 52.5 °F 29.66 in West 2 mph 2 mph 94.4% 0.00 in 141 W/m2
09:34 54.2 °F 52.4 °F 29.66 in West 1.7 mph 2 mph 93.6% 0.00 in 181 W/m2
09:39 54.6 °F 52.4 °F 29.66 in West 2.2 mph 2 mph 92.3% 0.00 in 226 W/m2
09:44 55.4 °F 52.5 °F 29.66 in South 3.7 mph 4 mph 90.2% 0.00 in 213 W/m2
09:49 55.9 °F 52.8 °F 29.66 in SE 3.6 mph 5 mph 89.2% 0.00 in 130 W/m2
09:54 56.2 °F 53 °F 29.65 in SE 4.4 mph 5 mph 88.9% 0.00 in 171 W/m2
09:59 56.7 °F 53.3 °F 29.65 in ESE 4.9 mph 6 mph 88.5% 0.00 in 400 W/m2
10:04 57.8 °F 54.2 °F 29.65 in ENE 5.6 mph 6 mph 87.5% 0.00 in 569 W/m2
10:09 59.4 °F 55 °F 29.65 in NE 4.1 mph 7 mph 85.4% 0.00 in 569 W/m2
10:14 60.6 °F 55.6 °F 29.65 in NNE 3.8 mph 5 mph 83.5% 0.00 in 463 W/m2
10:19 61.3 °F 54.8 °F 29.65 in NNW 4.6 mph 5 mph 79.2% 0.00 in 556 W/m2
10:24 61.6 °F 55 °F 29.65 in NE 3 mph 6 mph 78.9% 0.00 in 601 W/m2
10:29 62.7 °F 55.8 °F 29.64 in NE 3.3 mph 4 mph 78.1% 0.00 in 574 W/m2
10:34 63.5 °F 56.2 °F 29.64 in SE 2.9 mph 4 mph 77% 0.00 in 527 W/m2
10:39 64.1 °F 56.2 °F 29.64 in SSW 2.8 mph 4 mph 75.4% 0.00 in 511 W/m2
10:44 64.7 °F 56.2 °F 29.64 in WSW 2.8 mph 3 mph 74.1% 0.00 in 529 W/m2
10:49 65.1 °F 56.5 °F 29.63 in WSW 3.5 mph 3.6 mph 73.6% 0.00 in 528 W/m2
10:54 65.5 °F 56.7 °F 29.63 in WSW 5.1 mph 5 mph 73.1% 0.00 in 605 W/m2
10:59 66.2 °F 56.9 °F 29.63 in WSW 4.2 mph 6 mph 72.1% 0.00 in 636 W/m2
11:04 66.7 °F 56.5 °F 29.62 in WSW 3.7 mph 5 mph 69.7% 0.00 in 632 W/m2
11:09 66.6 °F 55.9 °F 29.62 in SSW 8 mph 7 mph 68.4% 0.00 in 230 W/m2
11:14 65.8 °F 54.7 °F 29.62 in South 6.8 mph 9 mph 67.6% 0.00 in 290 W/m2
11:19 65.3 °F 54.4 °F 29.61 in South 5.6 mph 8 mph 67.8% 0.00 in 238 W/m2
11:24 65.3 °F 53.7 °F 29.61 in South 9 mph 8 mph 66.3% 0.00 in 622 W/m2
11:29 65.6 °F 53.8 °F 29.61 in South 11 mph 12 mph 65.8% 0.00 in 520 W/m2
11:34 66.3 °F 54.2 °F 29.61 in South 8.8 mph 12 mph 65.2% 0.00 in 521 W/m2
11:39 66.6 °F 54.3 °F 29.60 in SSW 6.1 mph 9 mph 64.8% 0.00 in 400 W/m2
11:44 66.7 °F 54.4 °F 29.60 in SSW 7.7 mph 9 mph 64.6% 0.00 in 403 W/m2
11:49 66.6 °F 54.2 °F 29.60 in SSW 8.7 mph 12 mph 64.3% 0.00 in 285 W/m2
11:54 66.4 °F 54.1 °F 29.60 in SW 6.9 mph 11 mph 64.7% 0.00 in 302 W/m2
11:59 66.2 °F 53.7 °F 29.60 in SW 11.9 mph 9.8 mph 63.9% 0.00 in 268 W/m2
12:04 66.1 °F 53.2 °F 29.59 in SW 14.7 mph 14 mph 63.1% 0.00 in 189 W/m2
12:09 65.7 °F 52.6 °F 29.59 in SW 17.8 mph 19 mph 62.6% 0.00 in 72 W/m2
12:14 65.3 °F 52.5 °F 29.59 in SW 14.9 mph 20 mph 63.4% 0.00 in 65 W/m2
12:19 64.9 °F 52.4 °F 29.59 in SW 15.8 mph 16 mph 64.1% 0.01 in 69 W/m2
12:24 64.6 °F 52.4 °F 29.59 in SW 15.6 mph 17 mph 64.9% 0.01 in 102 W/m2
12:29 64.2 °F 53 °F 29.58 in SW 13.7 mph 17 mph 66.9% 0.01 in 104 W/m2
12:34 64 °F 53 °F 29.58 in SW 10.9 mph 15 mph 67.3% 0.01 in 98 W/m2
12:39 63.9 °F 53.1 °F 29.58 in SW 9.1 mph 12 mph 67.8% 0.01 in 98 W/m2
12:44 63.9 °F 53.1 °F 29.58 in SSW 10.4 mph 10 mph 67.9% 0.01 in 90 W/m2
12:49 63.7 °F 52.9 °F 29.58 in SW 10.8 mph 13 mph 68% 0.01 in 75 W/m2
12:54 63.5 °F 53.3 °F 29.59 in SW 11.2 mph 13 mph 69.4% 0.01 in 74 W/m2
12:59 63 °F 53.2 °F 29.59 in SW 14 mph 14 mph 70.4% 0.01 in 62 W/m2
13:04 62.4 °F 53.6 °F 29.59 in SW 13.1 mph 15 mph 73% 0.01 in 56 W/m2
13:09 61.7 °F 54 °F 29.59 in SW 12.4 mph 14 mph 75.8% 0.01 in 64 W/m2
13:14 61 °F 54.3 °F 29.59 in SW 12 mph 14 mph 78.6% 0.02 in 74 W/m2
13:19 60.4 °F 54.6 °F 29.60 in SW 8.8 mph 14 mph 81.1% 0.02 in 72 W/m2
13:24 59.9 °F 54.9 °F 29.60 in SW 8 mph 9 mph 83.6% 0.01 in 48 W/m2
13:29 59.5 °F 54.6 °F 29.60 in SW 8.8 mph 8 mph 84% 0.01 in 50 W/m2
13:34 59.2 °F 54.4 °F 29.60 in SW 8.3 mph 12 mph 84.1% 0.01 in 50 W/m2
13:39 59.1 °F 54.6 °F 29.60 in SW 6.9 mph 9 mph 84.9% 0.01 in 46 W/m2
13:44 58.9 °F 54.5 °F 29.60 in SW 4.9 mph 8 mph 85.5% 0.01 in 61 W/m2
13:49 58.6 °F 54.8 °F 29.60 in SW 3.7 mph 6 mph 86.9% 0.01 in 52 W/m2
13:54 58.5 °F 55.1 °F 29.59 in SSW 2.2 mph 4 mph 88.6% 0.02 in 22 W/m2
13:59 58.3 °F 55.1 °F 29.59 in SW 1.6 mph 2 mph 89% 0.02 in 25 W/m2
14:04 57.9 °F 55.1 °F 29.59 in WNW 0.8 mph 2 mph 90.2% 0.02 in 30 W/m2
14:09 57.6 °F 55 °F 29.58 in WSW 1.8 mph 1.3 mph 91% 0.02 in 36 W/m2
14:14 57.6 °F 55.2 °F 29.58 in West 1.9 mph 2 mph 91.8% 0.02 in 34 W/m2
14:19 57.4 °F 55.4 °F 29.58 in NW 2.2 mph 2 mph 93% 0.02 in 31 W/m2
14:24 57.3 °F 55.5 °F 29.58 in NW 2.1 mph 3 mph 93.8% 0.02 in 19 W/m2
14:29 57 °F 55.3 °F 29.58 in WNW 2.7 mph 3 mph 94.1% 0.02 in 21 W/m2
14:34 56.8 °F 55.4 °F 29.58 in WNW 3.3 mph 3 mph 95% 0.02 in 31 W/m2
14:39 56.5 °F 55.4 °F 29.57 in WSW 3.2 mph 4 mph 95.9% 0.02 in 30 W/m2
14:44 56.3 °F 55.3 °F 29.57 in SSW 3 mph 4 mph 96% 0.02 in 31 W/m2
14:49 56.3 °F 55.2 °F 29.57 in SSW 1.2 mph 3 mph 96% 0.02 in 32 W/m2
14:54 56.3 °F 55.6 °F 29.57 in WSW 1.9 mph 2 mph 97.7% 0.02 in 28 W/m2
14:59 56.1 °F 55.6 °F 29.57 in WNW 2.2 mph 2 mph 98% 0.01 in 19 W/m2
15:04 56.1 °F 55.6 °F 29.57 in NW 2.6 mph 2.5 mph 98% 0.01 in 15 W/m2
15:09 55.9 °F 55.5 °F 29.58 in WNW 3.5 mph 4 mph 98.3% 0.01 in 13 W/m2
15:14 55.9 °F 55.7 °F 29.58 in West 3 mph 4 mph 99% 0.01 in 9 W/m2
15:19 55.8 °F 55.5 °F 29.58 in WSW 2.4 mph 4 mph 99% 0.01 in 6 W/m2
15:24 55.6 °F 55.3 °F 29.58 in WSW 1.9 mph 2 mph 99% 0.02 in 6 W/m2
15:29 55.6 °F 55.3 °F 29.58 in West 1.5 mph 2 mph 99% 0.03 in 6 W/m2
15:34 55.3 °F 55 °F 29.58 in West 1.3 mph 2 mph 99% 0.03 in 3 W/m2
15:39 55.2 °F 54.9 °F 29.58 in North 1.4 mph 2 mph 99% 0.04 in 1 W/m2
15:44 55 °F 54.8 °F 29.58 in NNE 2.9 mph 3.1 mph 99% 0.04 in 1 W/m2
15:49 55 °F 54.8 °F 29.59 in NNE 6.5 mph 5 mph 99% 0.04 in 1 W/m2
15:54 54.9 °F 54.6 °F 29.59 in NNE 6.5 mph 8 mph 99% 0.05 in 0 W/m2
15:59 54.8 °F 54.5 °F 29.59 in NNE 8.6 mph 7.2 mph 99% 0.05 in 0 W/m2
16:04 54.7 °F 54.4 °F 29.58 in NNE 10.5 mph 10 mph 99% 0.06 in 0 W/m2
16:09 54.7 °F 54.4 °F 29.58 in ENE 8.3 mph 12 mph 99% 0.06 in 0 W/m2
16:14 55 °F 54.8 °F 29.58 in SE 9.9 mph 12 mph 99% 0.07 in 0 W/m2
16:19 55.2 °F 54.9 °F 29.58 in SSE 6.4 mph 10 mph 99% 0.09 in 0 W/m2
16:24 55 °F 54.7 °F 29.59 in SSW 4.9 mph 7 mph 99% 0.09 in 0 W/m2
16:29 54.9 °F 54.6 °F 29.59 in SW 6.6 mph 6.7 mph 99% 0.10 in 0 W/m2
16:34 55 °F 54.8 °F 29.58 in SSW 8.1 mph 10 mph 99% 0.12 in 0 W/m2
16:39 55 °F 54.8 °F 29.58 in South 5.5 mph 10 mph 99% 0.14 in 0 W/m2
16:44 55 °F 54.8 °F 29.59 in SSE 5.3 mph 7 mph 99% 0.15 in 0 W/m2
16:49 55 °F 54.7 °F 29.59 in South 5 mph 7 mph 99% 0.16 in 0 W/m2
16:54 54.9 °F 54.6 °F 29.58 in SSW 5.4 mph 7 mph 99% 0.19 in 0 W/m2
16:59 54.9 °F 54.6 °F 29.58 in South 4.6 mph 7 mph 99% 0.21 in 0 W/m2
17:04 54.9 °F 54.6 °F 29.58 in SSE 6.2 mph 6 mph 99% 0.23 in 0 W/m2
17:09 54.9 °F 54.6 °F 29.58 in East 5.7 mph 8 mph 99% 0.24 in 0 W/m2
17:14 54.7 °F 54.4 °F 29.58 in East 4.4 mph 7 mph 99% 0.24 in 0 W/m2
17:19 54.7 °F 54.4 °F 29.59 in NE 3.3 mph 6 mph 99% 0.24 in 0 W/m2
17:24 54.5 °F 54.2 °F 29.60 in NW 5.5 mph 5 mph 99% 0.23 in 0 W/m2
17:29 54.5 °F 54.2 °F 29.61 in WNW 5.8 mph 7 mph 99% 0.23 in 0 W/m2
17:34 54.4 °F 54.1 °F 29.61 in West 7 mph 7 mph 99% 0.22 in 0 W/m2
17:39 54.5 °F 54.2 °F 29.62 in West 5.1 mph 8 mph 99% 0.23 in 0 W/m2
17:44 54.6 °F 54.3 °F 29.62 in WSW 5.2 mph 7 mph 99% 0.24 in 0 W/m2
17:49 54.5 °F 54.2 °F 29.61 in SW 6.8 mph 7 mph 99% 0.25 in 0 W/m2
17:54 54.5 °F 54.2 °F 29.60 in SE 7.7 mph 8 mph 99% 0.24 in 0 W/m2
17:59 54.3 °F 54 °F 29.60 in East 7.4 mph 10 mph 99% 0.22 in 0 W/m2
18:04 54.3 °F 54 °F 29.60 in ESE 7.3 mph 8 mph 99% 0.19 in 0 W/m2
18:09 54.5 °F 54.2 °F 29.60 in ESE 5.2 mph 8 mph 99% 0.17 in 0 W/m2
18:14 54.5 °F 54.2 °F 29.60 in ESE 5.9 mph 7 mph 99% 0.15 in 0 W/m2
18:19 54.5 °F 54.2 °F 29.60 in East 4.4 mph 7 mph 99% 0.14 in 0 W/m2
18:24 54.3 °F 54 °F 29.60 in ESE 4.3 mph 5 mph 99% 0.13 in 0 W/m2
18:27 54.3 °F 54 °F 29.60 in ESE 2.8 mph 6 mph 99% 0.12 in 0 W/m2
18:34 54.3 °F 54 °F 29.60 in East 3.3 mph 1.8 mph 99% 0.11 in 0 W/m2
18:39 54.2 °F 54 °F 29.60 in ENE 1.7 mph 5 mph 99% 0.08 in 0 W/m2
18:44 54.1 °F 53.9 °F 29.60 in NE 1.6 mph 2 mph 99% 0.05 in 0 W/m2
18:49 54.1 °F 53.8 °F 29.60 in NNE 1.2 mph 2 mph 99% 0.02 in 0 W/m2
18:54 54 °F 53.7 °F 29.59 in NNE 2.1 mph 2 mph 99% 0.02 in 0 W/m2
18:59 54 °F 53.7 °F 29.59 in NE 2.8 mph 2 mph 99% 0.01 in 0 W/m2
19:04 53.9 °F 53.6 °F 29.59 in NE 2.1 mph 4 mph 99% 0.00 in 0 W/m2
19:09 53.8 °F 53.5 °F 29.60 in NNE 1.7 mph 2 mph 99% 0.00 in 0 W/m2
19:14 53.6 °F 53.3 °F 29.60 in North 1.9 mph 2 mph 99% 0.00 in 0 W/m2
19:19 53.4 °F 53.1 °F 29.60 in North 1.4 mph 2 mph 99% 0.00 in 0 W/m2
19:24 53.4 °F 53.1 °F 29.60 in North 1.6 mph 2 mph 99% 0.00 in 0 W/m2
19:29 53.4 °F 53.1 °F 29.61 in NNE 1.6 mph 2 mph 99% 0.00 in 0 W/m2
19:34 53.4 °F 53.1 °F 29.61 in NE 3.9 mph 3.1 mph 99% 0.00 in 0 W/m2
19:39 53.3 °F 53 °F 29.60 in East 4.4 mph 5 mph 99% 0.04 in 0 W/m2
19:44 53.2 °F 53 °F 29.60 in East 5 mph 5 mph 99% 0.04 in 0 W/m2
19:49 53.2 °F 53 °F 29.60 in ESE 5.3 mph 6 mph 99% 0.04 in 0 W/m2
19:54 53.1 °F 52.8 °F 29.60 in ESE 6.2 mph 6 mph 99% 0.04 in 0 W/m2
19:59 53.1 °F 52.8 °F 29.61 in ESE 5 mph 7 mph 99% 0.04 in 0 W/m2
20:04 53.1 °F 52.8 °F 29.60 in ESE 5.4 mph 6 mph 99% 0.04 in 0 W/m2
20:09 53.1 °F 52.8 °F 29.61 in ESE 4.5 mph 6 mph 99% 0.04 in 0 W/m2
20:14 53.1 °F 52.8 °F 29.61 in East 4 mph 6 mph 99% 0.04 in 0 W/m2
20:19 53.1 °F 52.8 °F 29.62 in ENE 2.5 mph 5 mph 99% 0.04 in 0 W/m2
20:24 53 °F 52.7 °F 29.62 in NE 3.1 mph 3 mph 99% 0.04 in 0 W/m2
20:29 53 °F 52.7 °F 29.62 in NNE 2.5 mph 4 mph 99% 0.04 in 0 W/m2
20:34 53.1 °F 52.8 °F 29.62 in NNE 1.6 mph 2 mph 99% 0.04 in 0 W/m2
20:39 53.1 °F 52.8 °F 29.62 in NNE 2.2 mph 2 mph 99% 0.00 in 0 W/m2
20:44 52.9 °F 52.6 °F 29.63 in NE 3.3 mph 3.6 mph 99% 0.00 in 0 W/m2
20:49 52.8 °F 52.5 °F 29.63 in NE 3.2 mph 4 mph 99% 0.00 in 0 W/m2
20:54 52.9 °F 52.6 °F 29.63 in NE 3.7 mph 4 mph 99% 0.00 in 0 W/m2
20:59 53 °F 52.7 °F 29.64 in ENE 4.1 mph 5 mph 99% 0.00 in 0 W/m2
21:04 53 °F 52.7 °F 29.64 in ENE 4 mph 5 mph 99% 0.00 in 0 W/m2
21:09 52.9 °F 52.6 °F 29.65 in NNE 3.2 mph 5 mph 99% 0.00 in 0 W/m2
21:14 52.9 °F 52.6 °F 29.65 in NNE 2.7 mph 4 mph 99% 0.00 in 0 W/m2
21:19 53 °F 52.7 °F 29.65 in NE 2.3 mph 3 mph 99% 0.00 in 0 W/m2
21:24 53.1 °F 52.8 °F 29.65 in North 5.4 mph 6 mph 99% 0.00 in 0 W/m2
21:29 53.1 °F 52.8 °F 29.66 in NW 3.3 mph 6 mph 99% 0.00 in 0 W/m2
21:34 53 °F 52.7 °F 29.66 in NW 2.9 mph 4 mph 99% 0.00 in 0 W/m2
21:39 53 °F 52.7 °F 29.66 in NE 3.3 mph 3 mph 99% 0.00 in 0 W/m2
21:44 52.9 °F 52.6 °F 29.66 in ENE 3.6 mph 4 mph 99% 0.00 in 0 W/m2
21:49 52.9 °F 52.6 °F 29.66 in NE 3.7 mph 5 mph 99% 0.00 in 0 W/m2
21:54 52.9 °F 52.6 °F 29.65 in NE 5.6 mph 6 mph 99% 0.00 in 0 W/m2
21:59 53.1 °F 52.8 °F 29.65 in NE 6.6 mph 7 mph 99% 0.00 in 0 W/m2
22:04 53.1 °F 52.8 °F 29.65 in NE 3.8 mph 7 mph 99% 0.00 in 0 W/m2
22:09 53.1 °F 52.8 °F 29.66 in NE 2.4 mph 5 mph 99% 0.00 in 0 W/m2
22:14 53 °F 52.7 °F 29.67 in North 3 mph 2.2 mph 99% 0.00 in 0 W/m2
22:19 52.9 °F 52.6 °F 29.67 in NNW 3.4 mph 3 mph 99% 0.00 in 0 W/m2
22:24 52.9 °F 52.6 °F 29.67 in North 3 mph 4 mph 99% 0.00 in 0 W/m2
22:29 52.9 °F 52.6 °F 29.67 in NNW 3.5 mph 5 mph 99% 0.00 in 0 W/m2
22:34 53 °F 52.7 °F 29.67 in NW 2.6 mph 4 mph 99% 0.00 in 0 W/m2
22:39 53.2 °F 52.9 °F 29.67 in North 3.2 mph 3 mph 99% 0.00 in 0 W/m2
22:44 53.3 °F 53.1 °F 29.68 in NE 3.4 mph 4 mph 99% 0.00 in 0 W/m2
22:49 53.3 °F 53 °F 29.68 in NE 3.4 mph 4 mph 99% 0.00 in 0 W/m2
22:54 53.2 °F 53 °F 29.68 in NNE 3.3 mph 3 mph 99% 0.00 in 0 W/m2
22:59 53.2 °F 52.9 °F 29.68 in NNE 2.7 mph 4 mph 99% 0.00 in 0 W/m2
23:04 53.1 °F 52.8 °F 29.68 in NNE 2.2 mph 3 mph 99% 0.00 in 0 W/m2
23:09 53.2 °F 53 °F 29.68 in NNE 1.9 mph 3 mph 99% 0.00 in 0 W/m2
23:14 53.2 °F 53 °F 29.69 in NE 1.6 mph 2 mph 99% 0.00 in 0 W/m2
23:19 53.1 °F 52.8 °F 29.69 in NE 2 mph 2 mph 99% 0.00 in 0 W/m2
23:24 53.1 °F 52.8 °F 29.70 in NE 3 mph 3 mph 99% 0.00 in 0 W/m2
23:29 53.1 °F 52.8 °F 29.70 in NE 3 mph 3.6 mph 99% 0.00 in 0 W/m2
23:34 53 °F 52.7 °F 29.70 in NNE 2.6 mph 4 mph 99% 0.00 in 0 W/m2
23:39 52.9 °F 52.6 °F 29.70 in North 3.4 mph 3 mph 99% 0.00 in 0 W/m2
23:44 52.9 °F 52.6 °F 29.70 in North 3.6 mph 4 mph 99% 0.00 in 0 W/m2
23:49 52.7 °F 52.4 °F 29.70 in NW 1.7 mph 5 mph 99% 0.00 in 0 W/m2
23:54 52.7 °F 52.4 °F 29.70 in NNW 2.9 mph 4 mph 99% 0.00 in 0 W/m2
23:59 52.7 °F 52.4 °F 29.70 in NE 2.6 mph 4 mph 99% 0.00 in 0 W/m2
Knjazevac, Serbia
Compliments of Weather Underground - 4 mb